sensor_id;sensor_type;location;lat;lon;timestamp;pressure;altitude;pressure_sealevel;temperature;humidity
73681;BME280;61979;53.536;8.082;2022-09-03T00:00:29;101739.53;;;16.74;56.97
73681;BME280;61979;53.536;8.082;2022-09-03T00:01:45;101742.84;;;16.79;56.96
73681;BME280;61979;53.536;8.082;2022-09-03T00:03:30;101736.03;;;16.76;57.45
73681;BME280;61979;53.536;8.082;2022-09-03T00:04:50;101736.94;;;16.74;57.23
73681;BME280;61979;53.536;8.082;2022-09-03T00:06:15;101740.41;;;16.73;57.45
73681;BME280;61979;53.536;8.082;2022-09-03T00:07:25;101733.63;;;16.70;57.24
73681;BME280;61979;53.536;8.082;2022-09-03T00:09:00;101742.19;;;16.69;57.68
73681;BME280;61979;53.536;8.082;2022-09-03T00:10:07;101731.97;;;16.68;57.75
73681;BME280;61979;53.536;8.082;2022-09-03T00:12:24;101736.25;;;16.67;58.14
73681;BME280;61979;53.536;8.082;2022-09-03T00:13:34;101736.31;;;16.66;57.97
73681;BME280;61979;53.536;8.082;2022-09-03T00:15:36;101734.66;;;16.62;58.17
73681;BME280;61979;53.536;8.082;2022-09-03T00:16:44;101739.72;;;16.66;58.23
73681;BME280;61979;53.536;8.082;2022-09-03T00:17:53;101731.22;;;16.63;58.34
73681;BME280;61979;53.536;8.082;2022-09-03T00:18:57;101726.91;;;16.63;58.38
73681;BME280;61979;53.536;8.082;2022-09-03T00:20:05;101738.31;;;16.53;58.93
73681;BME280;61979;53.536;8.082;2022-09-03T00:21:11;101734.00;;;16.54;58.75
73681;BME280;61979;53.536;8.082;2022-09-03T00:22:33;101737.44;;;16.54;58.82
73681;BME280;61979;53.536;8.082;2022-09-03T00:23:39;101722.88;;;16.52;59.40
73681;BME280;61979;53.536;8.082;2022-09-03T00:24:41;101734.00;;;16.54;59.24
73681;BME280;61979;53.536;8.082;2022-09-03T00:25:55;101729.66;;;16.56;58.99
73681;BME280;61979;53.536;8.082;2022-09-03T00:27:00;101726.19;;;16.57;59.28
73681;BME280;61979;53.536;8.082;2022-09-03T00:28:06;101734.78;;;16.56;59.38
73681;BME280;61979;53.536;8.082;2022-09-03T00:29:15;101733.09;;;16.55;59.62
73681;BME280;61979;53.536;8.082;2022-09-03T00:30:16;101740.03;;;16.53;59.48
73681;BME280;61979;53.536;8.082;2022-09-03T00:31:25;101740.81;;;16.56;59.22
73681;BME280;61979;53.536;8.082;2022-09-03T00:32:38;101736.59;;;16.52;59.60
73681;BME280;61979;53.536;8.082;2022-09-03T00:33:41;101736.56;;;16.54;59.77
73681;BME280;61979;53.536;8.082;2022-09-03T00:34:50;101736.66;;;16.51;59.61
73681;BME280;61979;53.536;8.082;2022-09-03T00:37:04;101739.06;;;16.57;59.60
73681;BME280;61979;53.536;8.082;2022-09-03T00:38:04;101731.34;;;16.57;59.81
73681;BME280;61979;53.536;8.082;2022-09-03T00:39:05;101737.34;;;16.57;59.69
73681;BME280;61979;53.536;8.082;2022-09-03T00:40:20;101728.81;;;16.55;60.15
73681;BME280;61979;53.536;8.082;2022-09-03T00:42:39;101739.13;;;16.54;59.74
73681;BME280;61979;53.536;8.082;2022-09-03T00:47:10;101733.19;;;16.52;59.76
73681;BME280;61979;53.536;8.082;2022-09-03T00:48:19;101733.97;;;16.55;59.31
73681;BME280;61979;53.536;8.082;2022-09-03T00:49:36;101736.53;;;16.55;59.46
73681;BME280;61979;53.536;8.082;2022-09-03T00:53:27;101732.13;;;16.60;59.32
73681;BME280;61979;53.536;8.082;2022-09-03T00:58:53;101731.41;;;16.54;59.82
73681;BME280;61979;53.536;8.082;2022-09-03T01:00:07;101727.19;;;16.51;59.77
73681;BME280;61979;53.536;8.082;2022-09-03T01:01:18;101734.13;;;16.48;59.82
73681;BME280;61979;53.536;8.082;2022-09-03T01:03:10;101734.78;;;16.56;59.62
73681;BME280;61979;53.536;8.082;2022-09-03T01:04:22;101730.63;;;16.50;59.74
73681;BME280;61979;53.536;8.082;2022-09-03T01:07:59;101725.56;;;16.47;60.01
73681;BME280;61979;53.536;8.082;2022-09-03T01:13:07;101726.50;;;16.43;60.06
73681;BME280;61979;53.536;8.082;2022-09-03T01:17:50;101730.72;;;16.47;59.71
73681;BME280;61979;53.536;8.082;2022-09-03T01:20:22;101724.72;;;16.47;59.44
73681;BME280;61979;53.536;8.082;2022-09-03T01:29:23;101723.94;;;16.43;60.34
73681;BME280;61979;53.536;8.082;2022-09-03T01:30:27;101727.53;;;16.37;60.38
73681;BME280;61979;53.536;8.082;2022-09-03T01:37:46;101733.09;;;16.16;60.59
73681;BME280;61979;53.536;8.082;2022-09-03T01:38:51;101732.19;;;16.18;60.63
73681;BME280;61979;53.536;8.082;2022-09-03T01:40:05;101730.53;;;16.14;60.72
73681;BME280;61979;53.536;8.082;2022-09-03T01:42:46;101737.53;;;16.09;60.84
73681;BME280;61979;53.536;8.082;2022-09-03T01:45:55;101729.22;;;15.97;60.96
73681;BME280;61979;53.536;8.082;2022-09-03T01:47:04;101734.25;;;16.01;60.94
73681;BME280;61979;53.536;8.082;2022-09-03T01:48:13;101719.72;;;16.00;60.82
73681;BME280;61979;53.536;8.082;2022-09-03T01:51:23;101735.25;;;15.94;61.19
73681;BME280;61979;53.536;8.082;2022-09-03T01:52:44;101736.22;;;15.90;61.25
73681;BME280;61979;53.536;8.082;2022-09-03T01:55:04;101733.69;;;15.87;61.30
73681;BME280;61979;53.536;8.082;2022-09-03T01:58:44;101734.59;;;15.85;61.84
73681;BME280;61979;53.536;8.082;2022-09-03T02:00:55;101732.88;;;15.85;61.73
73681;BME280;61979;53.536;8.082;2022-09-03T02:02:59;101729.59;;;15.77;61.74
73681;BME280;61979;53.536;8.082;2022-09-03T02:04:12;101736.31;;;15.84;61.98
73681;BME280;61979;53.536;8.082;2022-09-03T02:05:17;101730.47;;;15.76;62.34
73681;BME280;61979;53.536;8.082;2022-09-03T02:06:18;101727.81;;;15.82;62.16
73681;BME280;61979;53.536;8.082;2022-09-03T02:07:19;101725.13;;;15.87;62.24
73681;BME280;61979;53.536;8.082;2022-09-03T02:08:21;101734.63;;;15.83;62.36
73681;BME280;61979;53.536;8.082;2022-09-03T02:09:21;101733.75;;;15.86;62.15
73681;BME280;61979;53.536;8.082;2022-09-03T02:11:30;101731.19;;;15.84;62.33
73681;BME280;61979;53.536;8.082;2022-09-03T02:12:31;101727.72;;;15.85;62.02
73681;BME280;61979;53.536;8.082;2022-09-03T02:13:43;101738.00;;;15.87;62.15
73681;BME280;61979;53.536;8.082;2022-09-03T02:14:45;101729.50;;;15.83;62.07
73681;BME280;61979;53.536;8.082;2022-09-03T02:15:45;101730.31;;;15.84;62.15
73681;BME280;61979;53.536;8.082;2022-09-03T02:16:47;101732.81;;;15.88;61.83
73681;BME280;61979;53.536;8.082;2022-09-03T02:17:49;101731.97;;;15.88;62.13
73681;BME280;61979;53.536;8.082;2022-09-03T02:18:53;101724.28;;;15.86;62.08
73681;BME280;61979;53.536;8.082;2022-09-03T02:19:55;101729.50;;;15.83;62.47
73681;BME280;61979;53.536;8.082;2022-09-03T02:20:56;101732.94;;;15.82;62.09
73681;BME280;61979;53.536;8.082;2022-09-03T02:21:56;101724.28;;;15.86;61.85
73681;BME280;61979;53.536;8.082;2022-09-03T02:22:57;101730.31;;;15.85;62.04
73681;BME280;61979;53.536;8.082;2022-09-03T02:23:58;101731.19;;;15.84;62.10
73681;BME280;61979;53.536;8.082;2022-09-03T02:24:59;101724.38;;;15.80;62.14
73681;BME280;61979;53.536;8.082;2022-09-03T02:26:00;101726.91;;;15.83;62.40
73681;BME280;61979;53.536;8.082;2022-09-03T02:27:01;101731.34;;;15.77;62.41
73681;BME280;61979;53.536;8.082;2022-09-03T02:28:02;101729.50;;;15.83;62.22
73681;BME280;61979;53.536;8.082;2022-09-03T02:29:02;101732.00;;;15.86;61.92
73681;BME280;61979;53.536;8.082;2022-09-03T02:30:03;101727.66;;;15.88;61.85
73681;BME280;61979;53.536;8.082;2022-09-03T02:31:04;101725.16;;;15.85;62.09
73681;BME280;61979;53.536;8.082;2022-09-03T02:32:04;101732.00;;;15.86;61.91
73681;BME280;61979;53.536;8.082;2022-09-03T02:33:04;101738.91;;;15.83;62.19
73681;BME280;61979;53.536;8.082;2022-09-03T02:34:05;101734.69;;;15.80;62.00
73681;BME280;61979;53.536;8.082;2022-09-03T02:35:05;101730.28;;;15.87;61.78
73681;BME280;61979;53.536;8.082;2022-09-03T02:36:07;101725.09;;;15.88;61.92
73681;BME280;61979;53.536;8.082;2022-09-03T02:37:15;101737.03;;;15.91;61.52
73681;BME280;61979;53.536;8.082;2022-09-03T02:38:17;101727.72;;;15.85;61.94
73681;BME280;61979;53.536;8.082;2022-09-03T02:39:17;101731.13;;;15.87;61.54
73681;BME280;61979;53.536;8.082;2022-09-03T02:40:18;101730.31;;;15.85;61.92
73681;BME280;61979;53.536;8.082;2022-09-03T02:41:18;101730.38;;;15.82;61.86
73681;BME280;61979;53.536;8.082;2022-09-03T02:42:19;101728.72;;;15.78;62.04
73681;BME280;61979;53.536;8.082;2022-09-03T02:43:26;101728.72;;;15.80;61.65
73681;BME280;61979;53.536;8.082;2022-09-03T02:44:30;101732.09;;;15.80;61.76
73681;BME280;61979;53.536;8.082;2022-09-03T02:45:32;101724.25;;;15.89;61.66
73681;BME280;61979;53.536;8.082;2022-09-03T02:47:53;101721.72;;;15.86;61.69
73681;BME280;61979;53.536;8.082;2022-09-03T02:48:54;101722.59;;;15.85;61.59
73681;BME280;61979;53.536;8.082;2022-09-03T02:49:55;101725.97;;;15.87;61.77
73681;BME280;61979;53.536;8.082;2022-09-03T02:50:55;101720.91;;;15.84;61.73
73681;BME280;61979;53.536;8.082;2022-09-03T02:52:05;101719.34;;;15.76;61.58
73681;BME280;61979;53.536;8.082;2022-09-03T02:53:08;101722.78;;;15.75;61.50
73681;BME280;61979;53.536;8.082;2022-09-03T02:54:09;101716.72;;;15.79;61.30
73681;BME280;61979;53.536;8.082;2022-09-03T02:55:09;101720.09;;;15.81;61.57
73681;BME280;61979;53.536;8.082;2022-09-03T02:56:10;101721.91;;;15.76;61.81
73681;BME280;61979;53.536;8.082;2022-09-03T02:57:12;101729.69;;;15.74;61.41
73681;BME280;61979;53.536;8.082;2022-09-03T02:58:13;101719.41;;;15.74;61.57
73681;BME280;61979;53.536;8.082;2022-09-03T02:59:13;101727.13;;;15.73;61.18
73681;BME280;61979;53.536;8.082;2022-09-03T03:00:13;101728.78;;;15.75;61.51
73681;BME280;61979;53.536;8.082;2022-09-03T03:01:14;101735.66;;;15.75;61.31
73681;BME280;61979;53.536;8.082;2022-09-03T03:02:14;101727.97;;;15.73;61.05
73681;BME280;61979;53.536;8.082;2022-09-03T03:03:14;101729.69;;;15.74;61.09
73681;BME280;61979;53.536;8.082;2022-09-03T03:04:14;101733.94;;;15.75;61.06
73681;BME280;61979;53.536;8.082;2022-09-03T03:05:17;101736.44;;;15.78;60.95
73681;BME280;61979;53.536;8.082;2022-09-03T03:06:20;101739.97;;;15.74;61.34
73681;BME280;61979;53.536;8.082;2022-09-03T03:07:21;101729.69;;;15.74;61.22
73681;BME280;61979;53.536;8.082;2022-09-03T03:08:22;101733.94;;;15.74;61.06
73681;BME280;61979;53.536;8.082;2022-09-03T03:09:24;101733.13;;;15.73;61.00
73681;BME280;61979;53.536;8.082;2022-09-03T03:10:24;101729.69;;;15.74;61.16
73681;BME280;61979;53.536;8.082;2022-09-03T03:11:24;101735.72;;;15.70;61.33
73681;BME280;61979;53.536;8.082;2022-09-03T03:12:25;101736.69;;;15.66;61.74
73681;BME280;61979;53.536;8.082;2022-09-03T03:13:26;101730.72;;;15.64;61.61
73681;BME280;61979;53.536;8.082;2022-09-03T03:14:26;101735.88;;;15.63;61.80
73681;BME280;61979;53.536;8.082;2022-09-03T03:15:26;101730.72;;;15.64;61.75
73681;BME280;61979;53.536;8.082;2022-09-03T03:16:27;101740.94;;;15.67;61.48
73681;BME280;61979;53.536;8.082;2022-09-03T03:17:28;101740.94;;;15.69;61.48
73681;BME280;61979;53.536;8.082;2022-09-03T03:18:28;101728.88;;;15.71;61.49
73681;BME280;61979;53.536;8.082;2022-09-03T03:19:28;101733.16;;;15.70;61.29
73681;BME280;61979;53.536;8.082;2022-09-03T03:20:29;101736.63;;;15.69;61.74
73681;BME280;61979;53.536;8.082;2022-09-03T03:21:29;101733.94;;;15.74;61.19
73681;BME280;61979;53.536;8.082;2022-09-03T03:22:29;101733.22;;;15.67;61.45
73681;BME280;61979;53.536;8.082;2022-09-03T03:23:30;101731.44;;;15.72;61.24
73681;BME280;61979;53.536;8.082;2022-09-03T03:24:31;101735.72;;;15.70;61.68
73681;BME280;61979;53.536;8.082;2022-09-03T03:25:35;101728.91;;;15.68;61.59
73681;BME280;61979;53.536;8.082;2022-09-03T03:26:35;101737.44;;;15.71;61.56
73681;BME280;61979;53.536;8.082;2022-09-03T03:27:36;101736.63;;;15.69;61.59
73681;BME280;61979;53.536;8.082;2022-09-03T03:28:38;101736.69;;;15.66;61.61
73681;BME280;61979;53.536;8.082;2022-09-03T03:29:41;101727.31;;;15.62;62.05
73681;BME280;61979;53.536;8.082;2022-09-03T03:30:41;101732.53;;;15.59;62.25
73681;BME280;61979;53.536;8.082;2022-09-03T03:31:42;101730.78;;;15.61;61.54
73681;BME280;61979;53.536;8.082;2022-09-03T03:32:42;101729.09;;;15.59;62.18
73681;BME280;61979;53.536;8.082;2022-09-03T03:33:42;101737.69;;;15.58;62.22
73681;BME280;61979;53.536;8.082;2022-09-03T03:34:43;101730.84;;;15.58;62.12
73681;BME280;61979;53.536;8.082;2022-09-03T03:35:43;101734.16;;;15.63;61.43
73681;BME280;61979;53.536;8.082;2022-09-03T03:36:43;101736.72;;;15.63;61.80
73681;BME280;61979;53.536;8.082;2022-09-03T03:37:43;101729.94;;;15.61;61.82
73681;BME280;61979;53.536;8.082;2022-09-03T03:38:44;101732.53;;;15.59;61.70
73681;BME280;61979;53.536;8.082;2022-09-03T03:39:44;101736.78;;;15.60;61.94
73681;BME280;61979;53.536;8.082;2022-09-03T03:40:44;101738.66;;;15.52;62.28
73681;BME280;61979;53.536;8.082;2022-09-03T03:41:45;101732.63;;;15.53;61.92
73681;BME280;61979;53.536;8.082;2022-09-03T03:42:46;101747.22;;;15.53;61.61
73681;BME280;61979;53.536;8.082;2022-09-03T03:43:46;101742.88;;;15.56;61.75
73681;BME280;61979;53.536;8.082;2022-09-03T03:44:47;101736.91;;;15.54;62.02
73681;BME280;61979;53.536;8.082;2022-09-03T03:45:56;101743.78;;;15.52;62.12
73681;BME280;61979;53.536;8.082;2022-09-03T03:46:57;101744.59;;;15.56;61.71
73681;BME280;61979;53.536;8.082;2022-09-03T03:47:57;101748.09;;;15.52;62.24
73681;BME280;61979;53.536;8.082;2022-09-03T03:48:58;101746.31;;;15.55;61.67
73681;BME280;61979;53.536;8.082;2022-09-03T03:49:58;101742.00;;;15.56;61.67
73681;BME280;61979;53.536;8.082;2022-09-03T03:50:59;101747.16;;;15.54;61.80
73681;BME280;61979;53.536;8.082;2022-09-03T03:52:00;101746.44;;;15.49;62.10
73681;BME280;61979;53.536;8.082;2022-09-03T03:53:02;101742.09;;;15.51;61.87
73681;BME280;61979;53.536;8.082;2022-09-03T03:54:02;101742.88;;;15.55;61.77
73681;BME280;61979;53.536;8.082;2022-09-03T03:55:03;101748.03;;;15.55;62.00
73681;BME280;61979;53.536;8.082;2022-09-03T03:56:04;101744.69;;;15.50;62.29
73681;BME280;61979;53.536;8.082;2022-09-03T03:57:05;101737.91;;;15.46;62.18
73681;BME280;61979;53.536;8.082;2022-09-03T03:58:05;101743.78;;;15.52;61.95
73681;BME280;61979;53.536;8.082;2022-09-03T03:59:05;101744.72;;;15.48;62.02
73681;BME280;61979;53.536;8.082;2022-09-03T04:00:06;101745.63;;;15.47;61.84
73681;BME280;61979;53.536;8.082;2022-09-03T04:01:07;101737.84;;;15.49;62.05
73681;BME280;61979;53.536;8.082;2022-09-03T04:02:08;101730.28;;;15.43;62.03
73681;BME280;61979;53.536;8.082;2022-09-03T04:03:08;101738.72;;;15.49;62.28
73681;BME280;61979;53.536;8.082;2022-09-03T04:04:08;101733.56;;;15.49;62.15
73681;BME280;61979;53.536;8.082;2022-09-03T04:05:08;101741.25;;;15.51;62.25
73681;BME280;61979;53.536;8.082;2022-09-03T04:06:10;101744.78;;;15.45;62.20
73681;BME280;61979;53.536;8.082;2022-09-03T04:07:10;101743.13;;;15.43;62.50
73681;BME280;61979;53.536;8.082;2022-09-03T04:08:11;101740.50;;;15.46;62.25
73681;BME280;61979;53.536;8.082;2022-09-03T04:09:12;101737.84;;;15.50;62.14
73681;BME280;61979;53.536;8.082;2022-09-03T04:10:12;101742.19;;;15.45;62.42
73681;BME280;61979;53.536;8.082;2022-09-03T04:11:15;101734.56;;;15.41;62.57
73681;BME280;61979;53.536;8.082;2022-09-03T04:12:15;101736.19;;;15.46;62.03
73681;BME280;61979;53.536;8.082;2022-09-03T04:13:18;101737.13;;;15.42;62.24
73681;BME280;61979;53.536;8.082;2022-09-03T04:14:18;101737.19;;;15.39;62.24
73681;BME280;61979;53.536;8.082;2022-09-03T04:15:18;101730.38;;;15.38;62.24
73681;BME280;61979;53.536;8.082;2022-09-03T04:16:20;101740.66;;;15.38;62.54
73681;BME280;61979;53.536;8.082;2022-09-03T04:17:20;101738.88;;;15.40;62.63
73681;BME280;61979;53.536;8.082;2022-09-03T04:18:21;101737.19;;;15.39;62.25
73681;BME280;61979;53.536;8.082;2022-09-03T04:19:21;101732.00;;;15.42;62.11
73681;BME280;61979;53.536;8.082;2022-09-03T04:20:22;101731.19;;;15.40;62.35
73681;BME280;61979;53.536;8.082;2022-09-03T04:21:27;101742.38;;;15.36;62.68
73681;BME280;61979;53.536;8.082;2022-09-03T04:22:27;101733.78;;;15.37;62.41
73681;BME280;61979;53.536;8.082;2022-09-03T04:23:32;101740.69;;;15.35;62.52
73681;BME280;61979;53.536;8.082;2022-09-03T04:24:32;101734.63;;;15.39;62.56
73681;BME280;61979;53.536;8.082;2022-09-03T04:25:32;101747.56;;;15.33;62.56
73681;BME280;61979;53.536;8.082;2022-09-03T04:26:33;101737.28;;;15.33;62.67
73681;BME280;61979;53.536;8.082;2022-09-03T04:27:33;101729.63;;;15.30;62.71
73681;BME280;61979;53.536;8.082;2022-09-03T04:28:34;101741.66;;;15.27;62.67
73681;BME280;61979;53.536;8.082;2022-09-03T04:29:34;101742.47;;;15.30;62.78
73681;BME280;61979;53.536;8.082;2022-09-03T04:30:36;101728.78;;;15.31;62.73
73681;BME280;61979;53.536;8.082;2022-09-03T04:31:36;101730.53;;;15.26;62.47
73681;BME280;61979;53.536;8.082;2022-09-03T04:32:37;101733.91;;;15.31;62.40
73681;BME280;61979;53.536;8.082;2022-09-03T04:33:52;101734.75;;;15.30;62.42
73681;BME280;61979;53.536;8.082;2022-09-03T04:34:53;101728.78;;;15.28;62.08
73681;BME280;61979;53.536;8.082;2022-09-03T04:36:00;101733.97;;;15.25;62.57
73681;BME280;61979;53.536;8.082;2022-09-03T04:37:00;101723.63;;;15.28;63.12
73681;BME280;61979;53.536;8.082;2022-09-03T04:38:00;101735.66;;;15.28;62.81
73681;BME280;61979;53.536;8.082;2022-09-03T04:39:03;101728.78;;;15.28;62.76
73681;BME280;61979;53.536;8.082;2022-09-03T04:40:03;101731.34;;;15.28;63.10
73681;BME280;61979;53.536;8.082;2022-09-03T04:41:04;101733.03;;;15.31;62.46
73681;BME280;61979;53.536;8.082;2022-09-03T04:42:05;101726.19;;;15.30;62.63
73681;BME280;61979;53.536;8.082;2022-09-03T04:43:05;101732.16;;;15.33;62.55
73681;BME280;61979;53.536;8.082;2022-09-03T04:44:05;101736.44;;;15.33;62.74
73681;BME280;61979;53.536;8.082;2022-09-03T04:45:05;101724.38;;;15.36;62.72
73681;BME280;61979;53.536;8.082;2022-09-03T04:46:06;101739.88;;;15.32;62.60
73681;BME280;61979;53.536;8.082;2022-09-03T04:47:06;101736.47;;;15.28;62.85
73681;BME280;61979;53.536;8.082;2022-09-03T04:48:07;101729.72;;;15.24;63.05
73681;BME280;61979;53.536;8.082;2022-09-03T04:49:09;101731.47;;;15.22;63.23
73681;BME280;61979;53.536;8.082;2022-09-03T04:50:09;101739.03;;;15.28;63.16
73681;BME280;61979;53.536;8.082;2022-09-03T04:51:10;101735.59;;;15.29;63.20
73681;BME280;61979;53.536;8.082;2022-09-03T04:52:12;101742.50;;;15.27;63.15
73681;BME280;61979;53.536;8.082;2022-09-03T04:53:12;101737.34;;;15.27;63.24
73681;BME280;61979;53.536;8.082;2022-09-03T04:54:12;101734.84;;;15.26;63.24
73681;BME280;61979;53.536;8.082;2022-09-03T04:55:13;101733.06;;;15.28;62.81
73681;BME280;61979;53.536;8.082;2022-09-03T04:56:14;101731.31;;;15.30;63.00
73681;BME280;61979;53.536;8.082;2022-09-03T04:57:15;101730.50;;;15.28;62.79
73681;BME280;61979;53.536;8.082;2022-09-03T04:58:15;101737.34;;;15.27;62.61
73681;BME280;61979;53.536;8.082;2022-09-03T04:59:16;101735.59;;;15.29;62.47
73681;BME280;61979;53.536;8.082;2022-09-03T05:00:16;101728.78;;;15.31;62.92
73681;BME280;61979;53.536;8.082;2022-09-03T05:01:18;101733.91;;;15.28;62.87
73681;BME280;61979;53.536;8.082;2022-09-03T05:02:18;101741.63;;;15.28;62.71
73681;BME280;61979;53.536;8.082;2022-09-03T05:03:20;101732.19;;;15.30;62.73
73681;BME280;61979;53.536;8.082;2022-09-03T05:04:21;101735.53;;;15.35;62.72
73681;BME280;61979;53.536;8.082;2022-09-03T05:05:21;101735.53;;;15.35;62.83
73681;BME280;61979;53.536;8.082;2022-09-03T05:06:21;101729.53;;;15.36;63.04
73681;BME280;61979;53.536;8.082;2022-09-03T05:07:21;101721.88;;;15.33;62.94
73681;BME280;61979;53.536;8.082;2022-09-03T05:08:22;101728.63;;;15.37;62.86
73681;BME280;61979;53.536;8.082;2022-09-03T05:09:22;101735.53;;;15.35;62.61
73681;BME280;61979;53.536;8.082;2022-09-03T05:10:22;101719.31;;;15.33;62.98
73681;BME280;61979;53.536;8.082;2022-09-03T05:11:23;101727.00;;;15.33;63.18
73681;BME280;61979;53.536;8.082;2022-09-03T05:12:24;101720.22;;;15.28;63.34
73681;BME280;61979;53.536;8.082;2022-09-03T05:13:24;101722.75;;;15.32;62.84
73681;BME280;61979;53.536;8.082;2022-09-03T05:14:24;101718.38;;;15.37;62.69
73681;BME280;61979;53.536;8.082;2022-09-03T05:15:25;101723.47;;;15.40;63.22
73681;BME280;61979;53.536;8.082;2022-09-03T05:16:25;101726.84;;;15.42;63.18
73681;BME280;61979;53.536;8.082;2022-09-03T05:17:27;101729.34;;;15.47;62.80
73681;BME280;61979;53.536;8.082;2022-09-03T05:18:27;101721.53;;;15.51;62.69
73681;BME280;61979;53.536;8.082;2022-09-03T05:19:28;101725.81;;;15.51;62.38
73681;BME280;61979;53.536;8.082;2022-09-03T05:20:28;101727.56;;;15.49;62.51
73681;BME280;61979;53.536;8.082;2022-09-03T05:21:29;101726.59;;;15.56;62.02
73681;BME280;61979;53.536;8.082;2022-09-03T05:22:29;101732.50;;;15.61;62.27
73681;BME280;61979;53.536;8.082;2022-09-03T05:23:30;101727.22;;;15.67;62.05
73681;BME280;61979;53.536;8.082;2022-09-03T05:24:30;101738.44;;;15.64;61.86
73681;BME280;61979;53.536;8.082;2022-09-03T05:25:30;101721.97;;;15.73;61.88
73681;BME280;61979;53.536;8.082;2022-09-03T05:26:35;101728.03;;;15.70;61.97
73681;BME280;61979;53.536;8.082;2022-09-03T05:27:36;101725.44;;;15.70;61.83
73681;BME280;61979;53.536;8.082;2022-09-03T05:28:37;101727.91;;;15.76;61.83
73681;BME280;61979;53.536;8.082;2022-09-03T05:29:37;101730.56;;;15.73;61.93
73681;BME280;61979;53.536;8.082;2022-09-03T05:30:38;101728.91;;;15.69;62.02
73681;BME280;61979;53.536;8.082;2022-09-03T05:31:38;101726.25;;;15.74;62.03
73681;BME280;61979;53.536;8.082;2022-09-03T05:32:38;101731.44;;;15.72;62.02
73681;BME280;61979;53.536;8.082;2022-09-03T05:33:39;101719.31;;;15.77;61.81
73681;BME280;61979;53.536;8.082;2022-09-03T05:34:41;101725.19;;;15.84;62.22
73681;BME280;61979;53.536;8.082;2022-09-03T05:35:42;101729.59;;;15.77;61.81
73681;BME280;61979;53.536;8.082;2022-09-03T05:36:42;101731.34;;;15.77;62.03
73681;BME280;61979;53.536;8.082;2022-09-03T05:37:42;101729.38;;;15.89;61.47
73681;BME280;61979;53.536;8.082;2022-09-03T05:38:42;101729.31;;;15.92;61.33
73681;BME280;61979;53.536;8.082;2022-09-03T05:39:43;101730.19;;;15.91;61.10
73681;BME280;61979;53.536;8.082;2022-09-03T05:40:43;101732.75;;;15.91;61.21
73681;BME280;61979;53.536;8.082;2022-09-03T05:41:43;101735.53;;;15.81;61.41
73681;BME280;61979;53.536;8.082;2022-09-03T05:42:43;101730.31;;;15.85;61.42
73681;BME280;61979;53.536;8.082;2022-09-03T05:43:44;101732.97;;;15.79;61.51
73681;BME280;61979;53.536;8.082;2022-09-03T05:44:44;101732.00;;;15.86;61.48
73681;BME280;61979;53.536;8.082;2022-09-03T05:45:44;101727.81;;;15.81;61.70
73681;BME280;61979;53.536;8.082;2022-09-03T05:46:44;101729.44;;;15.85;61.47
73681;BME280;61979;53.536;8.082;2022-09-03T05:47:45;101729.78;;;15.68;61.98
73681;BME280;61979;53.536;8.082;2022-09-03T05:48:45;101728.03;;;15.70;62.00
73681;BME280;61979;53.536;8.082;2022-09-03T05:49:45;101720.41;;;15.66;61.78
73681;BME280;61979;53.536;8.082;2022-09-03T05:50:46;101735.88;;;15.64;62.11
73681;BME280;61979;53.536;8.082;2022-09-03T05:51:46;101725.53;;;15.66;62.52
73681;BME280;61979;53.536;8.082;2022-09-03T05:52:46;101727.31;;;15.62;62.24
73681;BME280;61979;53.536;8.082;2022-09-03T05:53:47;101729.09;;;15.60;62.09
73681;BME280;61979;53.536;8.082;2022-09-03T05:54:47;101731.56;;;15.63;61.82
73681;BME280;61979;53.536;8.082;2022-09-03T05:55:57;101735.00;;;15.64;62.08
73681;BME280;61979;53.536;8.082;2022-09-03T05:56:59;101731.56;;;15.65;61.38
73681;BME280;61979;53.536;8.082;2022-09-03T05:57:59;101722.31;;;15.56;62.24
73681;BME280;61979;53.536;8.082;2022-09-03T05:59:00;101719.78;;;15.53;62.09
73681;BME280;61979;53.536;8.082;2022-09-03T06:00:02;101726.53;;;15.59;61.56
73681;BME280;61979;53.536;8.082;2022-09-03T06:01:09;101725.69;;;15.58;61.47
73681;BME280;61979;53.536;8.082;2022-09-03T06:02:10;101718.81;;;15.60;61.54
73681;BME280;61979;53.536;8.082;2022-09-03T06:03:10;101712.75;;;15.64;61.71
73681;BME280;61979;53.536;8.082;2022-09-03T06:04:13;101717.88;;;15.64;61.86
73681;BME280;61979;53.536;8.082;2022-09-03T06:05:13;101713.56;;;15.65;61.55
73681;BME280;61979;53.536;8.082;2022-09-03T06:06:15;101716.13;;;15.66;61.50
73681;BME280;61979;53.536;8.082;2022-09-03T06:07:16;101715.88;;;15.78;61.62
73681;BME280;61979;53.536;8.082;2022-09-03T06:08:16;101711.63;;;15.76;61.52
73681;BME280;61979;53.536;8.082;2022-09-03T06:09:17;101717.44;;;15.85;60.67
73681;BME280;61979;53.536;8.082;2022-09-03T06:10:18;101715.56;;;15.93;60.51
73681;BME280;61979;53.536;8.082;2022-09-03T06:11:18;101717.34;;;15.90;60.60
73681;BME280;61979;53.536;8.082;2022-09-03T06:12:18;101725.16;;;15.85;60.64
73681;BME280;61979;53.536;8.082;2022-09-03T06:13:19;101712.59;;;15.72;61.14
73681;BME280;61979;53.536;8.082;2022-09-03T06:14:19;101721.16;;;15.72;60.94
73681;BME280;61979;53.536;8.082;2022-09-03T06:15:19;101719.41;;;15.74;60.66
73681;BME280;61979;53.536;8.082;2022-09-03T06:16:20;101719.31;;;15.77;60.93
73681;BME280;61979;53.536;8.082;2022-09-03T06:17:21;101713.34;;;15.77;60.57
73681;BME280;61979;53.536;8.082;2022-09-03T06:18:22;101724.31;;;15.85;60.82
73681;BME280;61979;53.536;8.082;2022-09-03T06:19:22;101713.06;;;15.90;60.84
73681;BME280;61979;53.536;8.082;2022-09-03T06:20:23;101716.34;;;15.97;60.34
73681;BME280;61979;53.536;8.082;2022-09-03T06:21:27;101718.06;;;15.98;60.56
73681;BME280;61979;53.536;8.082;2022-09-03T06:22:27;101716.84;;;16.15;60.41
73681;BME280;61979;53.536;8.082;2022-09-03T06:23:29;101722.69;;;16.22;60.28